Time;durP1;ratioP1;P1;durP2;ratioP2;P2;SDS_P1;SDS_P2;PMS_P1;PMS_P2;Temp;Humidity;BMP_temperature;BMP_pressure;BME280_temperature;BME280_humidity;BME280_pressure;Samples;Min_cycle;Max_cycle;Signal;HPM_P1;HPM_P2
2022/01/31 00:01:01;;;;;;;13.73;4.50;;;;;;;-1.23;100.00;96581.00;5030275;28;20022;-75
2022/01/31 00:03:30;;;;;;;18.00;5.77;;;;;;;-1.22;100.00;96568.91;5030538;28;20033;-75
2022/01/31 00:05:56;;;;;;;13.50;4.63;;;;;;;-1.16;100.00;96565.19;5055132;28;20483;-75
2022/01/31 00:08:24;;;;;;;19.70;5.07;;;;;;;-1.20;100.00;96552.44;5035242;28;20455;-75
2022/01/31 00:10:50;;;;;;;14.90;4.77;;;;;;;-1.16;100.00;96565.19;5021486;28;20935;-75
2022/01/31 00:13:25;;;;;;;13.67;5.10;;;;;;;-1.17;100.00;96558.34;5014674;28;20513;-74
2022/01/31 00:15:56;;;;;;;14.37;4.70;;;;;;;-1.19;100.00;96546.38;5037235;28;20480;-74
2022/01/31 00:18:22;;;;;;;19.47;5.80;;;;;;;-1.22;100.00;96541.38;5031856;28;20446;-75
2022/01/31 00:20:48;;;;;;;14.90;5.23;;;;;;;-1.20;100.00;96546.47;5052642;28;20453;-75
2022/01/31 00:23:14;;;;;;;23.43;5.83;;;;;;;-1.23;100.00;96542.28;5041801;28;20501;-75
2022/01/31 00:25:40;;;;;;;21.80;5.20;;;;;;;-1.27;100.00;96538.22;5036975;28;20128;-74
2022/01/31 00:28:06;;;;;;;15.00;4.70;;;;;;;-1.26;100.00;96531.28;5022179;28;20530;-74
2022/01/31 00:30:31;;;;;;;14.90;5.17;;;;;;;-1.27;100.00;96530.47;5030427;28;20109;-75
2022/01/31 00:32:57;;;;;;;20.90;5.73;;;;;;;-1.28;100.00;96521.03;5019521;28;20547;-75
2022/01/31 00:35:25;;;;;;;19.63;4.87;;;;;;;-1.32;100.00;96506.63;5016539;28;20559;-75
2022/01/31 00:37:51;;;;;;;19.53;5.80;;;;;;;-1.35;100.00;96506.78;5030250;28;20509;-75
2022/01/31 00:40:17;;;;;;;16.57;5.73;;;;;;;-1.36;100.00;96494.81;5034494;28;20550;-75
2022/01/31 00:42:42;;;;;;;15.20;4.80;;;;;;;-1.36;100.00;96494.81;5022916;28;20072;-75
2022/01/31 00:45:29;;;;;;;17.57;5.37;;;;;;;-1.35;100.00;96496.47;5017099;28;20621;-75
2022/01/31 00:48:02;;;;;;;13.03;5.23;;;;;;;-1.31;100.00;96490.25;5038560;28;20028;-75
2022/01/31 00:50:37;;;;;;;16.03;5.40;;;;;;;-1.34;100.00;96467.19;5019286;28;21418;-74
2022/01/31 00:53:03;;;;;;;17.77;4.70;;;;;;;-1.35;100.00;96469.84;5036842;28;20555;-75
2022/01/31 00:55:28;;;;;;;14.27;5.50;;;;;;;-1.33;100.00;96458.53;5023863;28;20060;-74
2022/01/31 00:57:54;;;;;;;14.40;4.80;;;;;;;-1.30;100.00;96458.38;5027121;28;20456;-75
2022/01/31 01:00:20;;;;;;;19.90;6.57;;;;;;;-1.35;100.00;96455.19;5017260;28;20030;-75
2022/01/31 01:02:46;;;;;;;17.73;5.37;;;;;;;-1.30;100.00;96442.06;5032052;28;20096;-74
2022/01/31 01:05:14;;;;;;;10.93;5.13;;;;;;;-1.28;100.00;96446.22;5028064;28;20079;-75
2022/01/31 01:07:45;;;;;;;20.33;5.87;;;;;;;-1.28;100.00;96435.06;5020037;28;20499;-74
2022/01/31 01:10:14;;;;;;;18.30;5.77;;;;;;;-1.29;100.00;96418.75;5024113;28;20556;-74
2022/01/31 01:12:39;;;;;;;17.60;5.20;;;;;;;-1.23;100.00;96418.44;5058973;28;21207;-74
2022/01/31 01:15:06;;;;;;;22.53;6.03;;;;;;;-1.22;100.00;96412.34;5040901;28;20484;-74
2022/01/31 01:17:32;;;;;;;22.47;6.17;;;;;;;-1.20;100.00;96407.94;5029778;28;20559;-74
2022/01/31 01:19:58;;;;;;;15.30;5.30;;;;;;;-1.20;100.00;96417.44;5019669;28;20468;-74
2022/01/31 01:22:23;;;;;;;23.00;6.00;;;;;;;-1.18;100.00;96410.44;5021005;28;20025;-75
2022/01/31 01:24:49;;;;;;;16.53;5.97;;;;;;;-1.12;100.00;96409.28;5019879;28;20029;-75
2022/01/31 01:27:19;;;;;;;19.27;5.00;;;;;;;-1.04;100.00;96392.47;5013823;28;20514;-75
2022/01/31 01:29:46;;;;;;;19.90;6.63;;;;;;;-1.03;100.00;96372.66;5019909;28;21217;-75
2022/01/31 01:32:13;;;;;;;18.70;5.80;;;;;;;-0.96;100.00;96361.88;5036226;28;20522;-74
2022/01/31 01:34:38;;;;;;;15.93;6.10;;;;;;;-0.95;100.00;96344.66;5030839;28;20563;-75
2022/01/31 01:37:04;;;;;;;15.27;5.50;;;;;;;-0.98;100.00;96339.66;5032271;28;20517;-75
2022/01/31 01:39:33;;;;;;;13.70;4.70;;;;;;;-0.95;100.00;96347.22;5053964;28;20030;-74
2022/01/31 01:41:58;;;;;;;19.70;7.37;;;;;;;-0.86;100.00;96349.31;5037848;28;21055;-75
2022/01/31 01:44:53;;;;;;;19.10;6.13;;;;;;;-0.79;100.00;96352.38;5018750;28;20460;-74
2022/01/31 01:47:23;;;;;;;17.80;4.97;;;;;;;-0.76;100.00;96347.03;5028654;28;20029;-74
2022/01/31 01:49:51;;;;;;;27.10;7.33;;;;;;;-0.71;100.00;96334.69;5013694;28;20480;-75
2022/01/31 01:52:20;;;;;;;20.07;5.80;;;;;;;-0.70;100.00;96328.63;5066867;28;20483;-74
2022/01/31 01:54:47;;;;;;;28.40;7.73;;;;;;;-0.71;100.00;96312.25;5015875;28;20834;-74
2022/01/31 01:57:14;;;;;;;17.30;5.73;;;;;;;-0.66;100.00;96304.25;5033685;28;20471;-75
2022/01/31 01:59:42;;;;;;;19.17;5.37;;;;;;;-0.64;100.00;96275.75;5017061;28;20575;-74
2022/01/31 02:02:35;;;;;;;21.77;6.97;;;;;;;-0.63;100.00;96254.19;5028231;28;20459;-75
2022/01/31 02:05:02;;;;;;;15.97;5.57;;;;;;;-0.63;100.00;96228.38;5011329;28;20468;-74
2022/01/31 02:07:36;;;;;;;16.90;6.18;;;;;;;-0.60;100.00;96215.28;5033012;28;20498;-74
2022/01/31 02:10:06;;;;;;;16.23;5.47;;;;;;;-0.60;100.00;96207.53;5021266;28;20034;-74
2022/01/31 02:12:46;;;;;;;21.40;5.80;;;;;;;-0.61;100.00;96190.34;5015502;28;20930;-75
2022/01/31 02:15:24;;;;;;;16.63;5.32;;;;;;;-0.63;100.00;96174.13;5020320;28;20472;-75
2022/01/31 02:18:08;;;;;;;23.20;6.03;;;;;;;-0.58;100.00;96164.34;5032817;28;20521;-75
2022/01/31 02:20:39;;;;;;;14.93;6.07;;;;;;;-0.54;100.00;96163.22;5033707;28;20468;-75
2022/01/31 02:23:08;;;;;;;17.03;5.27;;;;;;;-0.56;100.00;96155.59;5020369;28;20080;-74
2022/01/31 02:25:56;;;;;;;17.50;5.00;;;;;;;-0.58;100.00;96167.75;5033249;28;20456;-75
2022/01/31 02:28:51;;;;;;;15.43;5.32;;;;;;;-0.56;100.00;96149.59;5025043;28;20833;-74
2022/01/31 02:31:18;;;;;;;21.00;5.57;;;;;;;-0.55;100.00;96171.91;5013207;28;20041;-75
2022/01/31 02:33:45;;;;;;;18.40;4.93;;;;;;;-0.54;100.00;96132.22;5034840;28;20456;-74
2022/01/31 02:36:11;;;;;;;11.53;4.87;;;;;;;-0.52;100.00;96120.06;5028231;28;20468;-75
2022/01/31 02:38:37;;;;;;;18.00;6.17;;;;;;;-0.52;100.00;96112.31;5022118;28;20038;-74
2022/01/31 02:41:04;;;;;;;17.70;4.93;;;;;;;-0.50;100.00;96093.22;5065292;28;20824;-75
2022/01/31 02:43:32;;;;;;;20.13;5.33;;;;;;;-0.50;100.00;96067.38;5019733;28;20585;-75
2022/01/31 02:45:59;;;;;;;22.23;5.67;;;;;;;-0.54;100.00;96089.19;5043931;28;20036;-74
2022/01/31 02:48:28;;;;;;;16.60;4.90;;;;;;;-0.56;100.00;96103.09;5016877;28;20452;-75
2022/01/31 02:50:55;;;;;;;19.30;6.00;;;;;;;-0.51;100.00;96098.47;5060565;28;21000;-75
2022/01/31 02:55:47;;;;;;;15.37;4.50;;;;;;;-0.44;100.00;96092.00;5040172;28;20559;-75
2022/01/31 02:58:17;;;;;;;25.90;6.97;;;;;;;-0.51;100.00;96085.53;5054083;28;20040;-75
2022/01/31 03:00:44;;;;;;;17.93;5.73;;;;;;;-0.48;100.00;96075.84;5022134;28;20462;-74
2022/01/31 03:03:14;;;;;;;16.80;4.83;;;;;;;-0.46;100.00;96057.69;5054113;28;20531;-75
2022/01/31 03:05:41;;;;;;;14.00;5.03;;;;;;;-0.47;100.00;96066.34;5028522;28;20537;-75
2022/01/31 03:08:07;;;;;;;12.57;4.60;;;;;;;-0.42;100.00;96042.81;5057323;28;20488;-74
2022/01/31 03:10:33;;;;;;;14.60;4.60;;;;;;;-0.45;100.00;96030.91;5036500;28;20036;-75
2022/01/31 03:13:00;;;;;;;23.23;6.60;;;;;;;-0.49;100.00;96039.81;5011855;28;20472;-74
2022/01/31 03:15:30;;;;;;;13.80;4.23;;;;;;;-0.46;100.00;96041.38;5034865;28;20463;-75
2022/01/31 03:18:22;;;;;;;26.77;5.50;;;;;;;-0.45;100.00;96012.84;5036449;28;21026;-74
2022/01/31 03:20:47;;;;;;;20.27;5.90;;;;;;;-0.41;100.00;95987.63;5012584;28;20500;-75
2022/01/31 03:23:14;;;;;;;14.83;5.47;;;;;;;-0.44;100.00;95987.84;5037017;28;20119;-75
2022/01/31 03:25:39;;;;;;;18.00;6.10;;;;;;;-0.50;100.00;95973.56;5017644;28;20551;-75
2022/01/31 03:28:05;;;;;;;23.23;5.93;;;;;;;-0.55;100.00;95966.09;5026035;28;20069;-75
2022/01/31 03:30:31;;;;;;;15.10;5.57;;;;;;;-0.47;100.00;95983.69;5033306;28;20025;-75
2022/01/31 03:32:56;;;;;;;18.00;5.20;;;;;;;-0.50;100.00;95978.75;5034570;28;20426;-74
2022/01/31 03:35:23;;;;;;;18.73;5.37;;;;;;;-0.50;100.00;95960.66;5029779;28;20076;-75
2022/01/31 03:37:49;;;;;;;14.30;4.77;;;;;;;-0.47;100.00;95950.09;5007689;28;20498;-74
2022/01/31 03:40:21;;;;;;;20.07;5.90;;;;;;;-0.47;100.00;95957.84;5011398;28;20444;-75
2022/01/31 03:42:47;;;;;;;19.10;5.23;;;;;;;-0.48;100.00;95944.13;5037455;28;20483;-75
2022/01/31 03:45:13;;;;;;;18.13;5.77;;;;;;;-0.46;100.00;95938.03;5010024;28;20075;-74
2022/01/31 03:47:44;;;;;;;16.60;5.27;;;;;;;-0.40;100.00;95928.13;5028567;28;20128;-74
2022/01/31 03:50:13;;;;;;;15.80;4.97;;;;;;;-0.41;100.00;95913.53;5007732;28;20471;-74
2022/01/31 03:52:39;;;;;;;15.73;5.23;;;;;;;-0.36;100.00;95908.91;5036491;28;20463;-74
2022/01/31 03:55:06;;;;;;;16.87;5.27;;;;;;;-0.40;100.00;95902.31;5022085;28;20452;-74
2022/01/31 03:57:33;;;;;;;17.03;7.30;;;;;;;-0.38;100.00;95884.94;5035941;28;20041;-74
2022/01/31 04:00:24;;;;;;;14.30;6.43;;;;;;;-0.34;100.00;95881.22;5061197;28;20472;-75
2022/01/31 04:02:50;;;;;;;16.50;4.77;;;;;;;-0.34;100.00;95901.06;5029181;28;20562;-75
2022/01/31 04:05:16;;;;;;;16.20;5.33;;;;;;;-0.35;100.00;95910.56;5032831;28;20442;-75
2022/01/31 04:07:43;;;;;;;16.93;5.00;;;;;;;-0.38;100.00;95928.03;5035880;28;20087;-74
2022/01/31 04:10:09;;;;;;;12.67;5.10;;;;;;;-0.36;100.00;95929.59;5036380;28;20122;-75
2022/01/31 04:12:34;;;;;;;18.80;6.17;;;;;;;-0.37;100.00;95915.03;5034406;28;20463;-75
2022/01/31 04:15:00;;;;;;;18.63;6.43;;;;;;;-0.33;100.00;95913.06;5042835;28;20515;-75
2022/01/31 04:17:26;;;;;;;18.83;6.60;;;;;;;-0.29;100.00;95915.34;5026749;28;20040;-75
2022/01/31 04:19:52;;;;;;;14.93;6.10;;;;;;;-0.31;100.00;95903.44;5037695;28;20508;-75
2022/01/31 04:22:18;;;;;;;17.97;5.90;;;;;;;-0.32;100.00;95894.88;5035015;28;21800;-75
2022/01/31 04:24:47;;;;;;;16.77;5.03;;;;;;;-0.28;100.00;95896.31;5038988;28;20041;-75
2022/01/31 04:27:17;;;;;;;18.47;6.63;;;;;;;-0.31;100.00;95896.50;5033276;28;20510;-75
2022/01/31 04:29:44;;;;;;;24.53;6.33;;;;;;;-0.28;100.00;95898.91;5030955;28;20908;-75
2022/01/31 04:32:10;;;;;;;13.67;4.93;;;;;;;-0.28;100.00;95885.97;5044175;28;20479;-75
2022/01/31 04:34:35;;;;;;;18.67;6.33;;;;;;;-0.31;100.00;95865.50;5035558;28;20456;-75
2022/01/31 04:37:02;;;;;;;13.27;5.27;;;;;;;-0.32;100.00;95863.84;5039409;28;20068;-74
2022/01/31 04:39:29;;;;;;;16.30;6.87;;;;;;;-0.33;100.00;95861.41;5039572;28;20028;-75
2022/01/31 04:41:55;;;;;;;18.30;6.67;;;;;;;-0.33;100.00;95869.97;5038232;28;20472;-75
2022/01/31 04:44:21;;;;;;;16.90;6.93;;;;;;;-0.32;100.00;95863.84;5037909;28;20491;-75
2022/01/31 04:46:49;;;;;;;15.90;7.70;;;;;;;-0.31;100.00;95850.00;5036043;28;20492;-74
2022/01/31 04:49:22;;;;;;;13.77;5.23;;;;;;;-0.32;100.00;95840.59;5026695;28;20420;-75
2022/01/31 04:51:49;;;;;;;16.93;6.83;;;;;;;-0.32;100.00;95832.84;5040838;28;20479;-75
2022/01/31 04:54:15;;;;;;;18.10;6.80;;;;;;;-0.36;100.00;95828.00;5033383;28;21211;-74
2022/01/31 04:56:42;;;;;;;17.10;6.17;;;;;;;-0.31;100.00;95823.34;5036018;28;20993;-75
2022/01/31 04:59:08;;;;;;;15.90;6.20;;;;;;;-0.30;100.00;95814.69;5036120;28;20825;-75
2022/01/31 05:01:34;;;;;;;14.63;6.23;;;;;;;-0.30;100.00;95806.94;5037478;28;20510;-74
2022/01/31 05:04:00;;;;;;;22.20;7.00;;;;;;;-0.24;100.00;95788.41;5037451;28;20550;-74
2022/01/31 05:06:31;;;;;;;15.93;5.90;;;;;;;-0.22;100.00;95776.22;5033300;28;20490;-75
2022/01/31 05:08:57;;;;;;;19.27;6.67;;;;;;;-0.24;100.00;95763.38;5032782;28;20080;-75
2022/01/31 05:11:22;;;;;;;18.13;7.40;;;;;;;-0.19;100.00;95760.50;5041161;28;21253;-75
2022/01/31 05:13:48;;;;;;;27.77;8.30;;;;;;;-0.14;100.00;95755.00;5033452;28;20091;-74
2022/01/31 05:16:13;;;;;;;17.63;6.40;;;;;;;-0.12;100.00;95735.06;5040750;28;20662;-74
2022/01/31 05:18:39;;;;;;;13.83;6.00;;;;;;;-0.11;100.00;95731.53;5028980;28;20100;-74
2022/01/31 05:21:05;;;;;;;15.00;5.93;;;;;;;-0.09;100.00;95716.75;5036793;28;20045;-75
2022/01/31 05:23:32;;;;;;;18.73;6.33;;;;;;;-0.03;100.00;95718.94;5035230;28;20037;-75
2022/01/31 05:25:57;;;;;;;16.37;6.83;;;;;;;-0.02;100.00;95695.53;5036713;28;20543;-74
2022/01/31 05:28:24;;;;;;;11.90;5.10;;;;;;;0.03;100.00;95681.47;5022883;28;20898;-75
2022/01/31 05:30:50;;;;;;;15.00;5.67;;;;;;;0.05;100.00;95683.00;5024253;28;20025;-75
2022/01/31 05:33:16;;;;;;;12.53;5.63;;;;;;;0.05;100.00;95677.84;5023924;28;20447;-74
2022/01/31 05:35:43;;;;;;;12.73;5.53;;;;;;;0.10;100.00;95673.19;5027134;28;20994;-74
2022/01/31 05:38:10;;;;;;;14.60;6.13;;;;;;;0.07;100.00;95673.41;5037059;28;20045;-74
2022/01/31 05:40:35;;;;;;;14.07;5.70;;;;;;;0.07;100.00;95647.53;5027103;28;20483;-74
2022/01/31 05:43:01;;;;;;;11.87;4.40;;;;;;;0.10;100.00;95649.91;5033831;28;21401;-75
2022/01/31 05:45:26;;;;;;;15.20;5.37;;;;;;;0.11;100.00;95650.75;5024923;28;20017;-75
2022/01/31 05:47:52;;;;;;;17.53;5.80;;;;;;;0.10;100.00;95644.75;5024508;28;20033;-75
2022/01/31 05:50:18;;;;;;;14.90;5.43;;;;;;;0.11;100.00;95654.16;5022868;28;20056;-75
2022/01/31 05:52:44;;;;;;;13.03;5.77;;;;;;;0.18;100.00;95642.44;5022579;28;20052;-76
2022/01/31 05:55:09;;;;;;;16.67;5.97;;;;;;;0.24;100.00;95633.41;5035035;28;20398;-75
2022/01/31 05:57:36;;;;;;;15.30;6.03;;;;;;;0.18;100.00;95629.50;5034090;28;20045;-75
2022/01/31 06:00:05;;;;;;;15.67;5.23;;;;;;;0.22;100.00;95630.91;5025495;28;21021;-75
2022/01/31 06:02:31;;;;;;;10.53;4.30;;;;;;;0.28;100.00;95613.31;5033607;28;20876;-75
2022/01/31 06:04:58;;;;;;;20.33;6.27;;;;;;;0.28;100.00;95616.72;5015891;28;20464;-75
2022/01/31 06:07:24;;;;;;;18.63;5.27;;;;;;;0.28;100.00;95608.97;5010114;28;20956;-75
2022/01/31 06:09:50;;;;;;;14.43;4.83;;;;;;;0.31;100.00;95602.75;5032442;28;20078;-76
2022/01/31 06:12:16;;;;;;;14.50;6.50;;;;;;;0.31;100.00;95589.81;5032666;28;20645;-75
2022/01/31 06:14:43;;;;;;;10.17;4.70;;;;;;;0.36;100.00;95580.78;5009835;28;20045;-76
2022/01/31 06:17:08;;;;;;;13.63;4.60;;;;;;;0.40;100.00;95561.53;5013089;28;20482;-75
2022/01/31 06:19:34;;;;;;;14.97;5.30;;;;;;;0.41;100.00;95549.41;5028951;28;20463;-75
2022/01/31 06:22:00;;;;;;;15.33;4.40;;;;;;;0.47;100.00;95548.97;5013538;28;20037;-75
2022/01/31 06:24:26;;;;;;;13.50;4.27;;;;;;;0.49;100.00;95566.94;5027149;28;20036;-76
2022/01/31 06:26:53;;;;;;;13.07;4.03;;;;;;;0.55;100.00;95559.53;5003863;28;20563;-76
2022/01/31 06:29:21;;;;;;;14.77;4.50;;;;;;;0.57;100.00;95549.06;5008963;28;20692;-75
2022/01/31 06:31:47;;;;;;;16.73;3.93;;;;;;;0.60;100.00;95541.91;5007943;28;20509;-75
2022/01/31 06:34:14;;;;;;;10.13;3.70;;;;;;;0.59;100.00;95542.03;5006878;28;21079;-75
2022/01/31 06:36:39;;;;;;;14.97;4.17;;;;;;;0.59;100.00;95535.09;5008881;28;20483;-75
2022/01/31 06:39:05;;;;;;;12.23;4.43;;;;;;;0.52;100.00;95528.72;5027786;28;20463;-75
2022/01/31 06:41:31;;;;;;;11.57;4.03;;;;;;;0.49;100.00;95528.13;5014684;28;20033;-75
2022/01/31 06:43:57;;;;;;;13.97;3.93;;;;;;;0.45;100.00;95523.19;5022678;28;20049;-75
2022/01/31 06:46:22;;;;;;;10.50;4.13;;;;;;;0.32;100.00;95524.22;5035960;28;20162;-75
2022/01/31 06:48:48;;;;;;;15.93;3.90;;;;;;;0.19;100.00;95522.53;5024800;28;20033;-75
2022/01/31 06:51:14;;;;;;;12.47;4.37;;;;;;;0.15;100.00;95526.28;5013384;28;20491;-75
2022/01/31 06:53:42;;;;;;;14.37;4.13;;;;;;;0.13;100.00;95540.25;5025980;28;20029;-75
2022/01/31 06:56:08;;;;;;;10.07;3.73;;;;;;;0.10;100.00;95537.91;5056008;28;20476;-74
2022/01/31 06:58:34;;;;;;;14.80;4.47;;;;;;;0.09;100.00;95551.78;5006211;28;20477;-75
2022/01/31 07:01:00;;;;;;;13.70;5.30;;;;;;;0.09;100.00;95538.84;5024699;28;20447;-75
2022/01/31 07:03:26;;;;;;;12.60;4.67;;;;;;;0.03;100.00;95541.88;5039271;28;20056;-75
2022/01/31 07:05:51;;;;;;;11.00;3.87;;;;;;;0.04;100.00;95544.38;5005972;28;20681;-75
2022/01/31 07:08:17;;;;;;;15.17;4.63;;;;;;;0.02;100.00;95541.06;5028761;28;20043;-75
2022/01/31 07:10:52;;;;;;;16.40;5.07;;;;;;;-0.06;100.00;95539.03;5013129;28;20380;-75
2022/01/31 07:13:36;;;;;;;12.83;4.43;;;;;;;-0.07;100.00;95533.97;5018944;28;20522;-75
2022/01/31 07:16:04;;;;;;;15.37;5.10;;;;;;;-0.11;100.00;95540.28;5029676;28;20507;-75
2022/01/31 07:18:31;;;;;;;12.07;5.70;;;;;;;-0.15;100.00;95544.03;5030998;28;20468;-75
2022/01/31 07:20:56;;;;;;;16.30;7.30;;;;;;;-0.16;100.00;95540.63;5049039;28;20508;-76
2022/01/31 07:23:38;;;;;;;19.00;5.63;;;;;;;-0.20;100.00;95548.69;5038820;28;20507;-74
2022/01/31 07:26:04;;;;;;;12.37;4.93;;;;;;;-0.19;100.00;95547.78;5011602;28;20091;-75
2022/01/31 07:28:30;;;;;;;17.37;5.10;;;;;;;-0.19;100.00;95552.97;5013488;28;20593;-75
2022/01/31 07:30:57;;;;;;;12.43;4.87;;;;;;;-0.21;100.00;95559.97;5019436;28;20037;-76
2022/01/31 07:33:24;;;;;;;16.73;5.47;;;;;;;-0.24;100.00;95548.09;5025862;28;20597;-75
2022/01/31 07:35:50;;;;;;;13.67;5.80;;;;;;;-0.26;100.00;95558.56;5023827;28;20547;-75
2022/01/31 07:38:17;;;;;;;17.83;5.10;;;;;;;-0.26;100.00;95555.97;5029300;28;20848;-74
2022/01/31 07:40:44;;;;;;;14.33;5.20;;;;;;;-0.24;100.00;95548.09;5027541;28;20436;-75
2022/01/31 07:43:10;;;;;;;12.17;4.70;;;;;;;-0.28;100.00;95537.16;5036986;28;20547;-75
2022/01/31 07:45:37;;;;;;;15.97;5.60;;;;;;;-0.25;100.00;95528.38;5009242;28;20867;-75
2022/01/31 07:48:02;;;;;;;14.50;5.33;;;;;;;-0.30;100.00;95533.88;5040660;28;20480;-75
2022/01/31 07:50:31;;;;;;;12.07;4.60;;;;;;;-0.30;100.00;95531.31;5033157;28;20039;-75
2022/01/31 07:52:57;;;;;;;13.73;5.40;;;;;;;-0.33;100.00;95533.28;5014607;28;20032;-76
2022/01/31 07:55:22;;;;;;;12.00;5.57;;;;;;;-0.31;100.00;95531.41;5032243;28;20495;-75
2022/01/31 07:57:48;;;;;;;12.30;5.27;;;;;;;-0.29;100.00;95519.19;5056088;28;20073;-75
2022/01/31 08:00:15;;;;;;;15.30;5.70;;;;;;;-0.30;100.00;95528.72;5011425;28;20038;-75
2022/01/31 08:02:41;;;;;;;13.87;7.03;;;;;;;-0.28;100.00;95537.16;5026207;28;20056;-75
2022/01/31 08:05:08;;;;;;;8.93;5.43;;;;;;;-0.31;100.00;95527.03;5022814;28;20471;-74
2022/01/31 08:07:35;;;;;;;13.87;5.67;;;;;;;-0.26;100.00;95531.91;5012500;28;20476;-75
2022/01/31 08:10:03;;;;;;;12.27;5.47;;;;;;;-0.27;100.00;95533.66;5026231;28;20460;-74
2022/01/31 08:12:29;;;;;;;11.33;5.63;;;;;;;-0.26;100.00;95530.13;5029125;28;20498;-75
2022/01/31 08:15:01;;;;;;;13.97;5.93;;;;;;;-0.27;100.00;95520.75;5024421;28;20475;-75
2022/01/31 08:17:27;;;;;;;11.83;5.70;;;;;;;-0.27;100.00;95519.91;5024563;28;20541;-75
2022/01/31 08:19:52;;;;;;;11.63;5.07;;;;;;;-0.28;100.00;95524.25;5016899;28;20471;-75
2022/01/31 08:22:18;;;;;;;15.40;6.37;;;;;;;-0.26;100.00;95532.72;5024144;28;20502;-75
2022/01/31 08:24:44;;;;;;;10.90;5.20;;;;;;;-0.24;100.00;95525.66;5014742;28;20041;-74
2022/01/31 08:27:10;;;;;;;13.53;5.53;;;;;;;-0.22;100.00;95529.91;5026718;28;20072;-75
2022/01/31 08:29:37;;;;;;;8.00;4.63;;;;;;;-0.17;100.00;95525.22;5034538;28;20083;-75
2022/01/31 08:32:09;;;;;;;11.87;5.10;;;;;;;-0.18;100.00;95529.56;5022979;28;20048;-74
2022/01/31 08:37:20;;;;;;;16.53;5.50;;;;;;;-0.13;100.00;95516.34;5026665;28;20998;-75
2022/01/31 08:39:46;;;;;;;11.60;5.70;;;;;;;-0.07;100.00;95526.22;5029242;28;20448;-74
2022/01/31 08:42:11;;;;;;;13.80;7.07;;;;;;;-0.04;100.00;95525.97;5017902;28;20037;-75
2022/01/31 08:44:37;;;;;;;9.50;4.63;;;;;;;0.00;100.00;95511.94;5030194;28;20498;-75
2022/01/31 08:47:04;;;;;;;23.43;15.60;;;;;;;0.01;100.00;95508.41;5035571;28;20036;-74
2022/01/31 08:49:33;;;;;;;12.90;8.37;;;;;;;0.07;100.00;95517.44;5033166;28;20029;-74
2022/01/31 08:51:59;;;;;;;8.63;5.67;;;;;;;0.13;100.00;95514.41;5032535;28;20476;-75
2022/01/31 08:54:25;;;;;;;11.10;6.77;;;;;;;0.12;100.00;95531.69;5033190;28;20467;-75
2022/01/31 08:56:50;;;;;;;17.00;8.90;;;;;;;0.12;100.00;95534.28;5024818;28;20044;-75
2022/01/31 08:59:19;;;;;;;11.93;6.40;;;;;;;0.09;100.00;95537.09;5012551;28;20119;-74
2022/01/31 09:02:13;;;;;;;9.03;3.97;;;;;;;0.04;100.00;95535.78;5020490;28;20032;-74
2022/01/31 09:04:47;;;;;;;9.63;4.43;;;;;;;0.07;100.00;95528.63;5027007;28;20460;-74
2022/01/31 09:07:16;;;;;;;16.10;8.13;;;;;;;0.08;100.00;95522.50;5053727;28;21252;-74
2022/01/31 09:09:43;;;;;;;15.00;8.20;;;;;;;0.15;100.00;95513.38;5039014;28;20516;-74
2022/01/31 09:12:11;;;;;;;14.70;7.20;;;;;;;0.15;100.00;95520.31;5060737;28;20472;-74
2022/01/31 09:14:37;;;;;;;9.83;5.20;;;;;;;0.12;100.00;95515.34;5035257;28;20475;-74
2022/01/31 09:17:03;;;;;;;6.27;3.37;;;;;;;0.22;100.00;95518.91;5032603;28;20471;-74
2022/01/31 09:19:29;;;;;;;8.80;3.37;;;;;;;0.35;100.00;95517.06;5032785;28;20602;-76
2022/01/31 09:21:55;;;;;;;9.60;4.13;;;;;;;0.53;100.00;95496.75;5016711;28;20475;-74
2022/01/31 09:24:21;;;;;;;6.80;3.00;;;;;;;0.61;100.00;95489.22;5030542;28;20040;-74
2022/01/31 09:26:47;;;;;;;7.63;2.60;;;;;;;0.68;100.00;95480.06;5031066;28;20044;-74
2022/01/31 09:29:13;;;;;;;8.27;3.30;;;;;;;0.80;100.00;95480.88;5041429;28;20029;-74
2022/01/31 09:31:38;;;;;;;8.00;2.93;;;;;;;0.85;100.00;95488.31;5039882;28;20095;-74
2022/01/31 09:34:06;;;;;;;9.63;2.70;;;;;;;0.85;100.00;95496.06;5022932;28;20501;-74
2022/01/31 09:36:32;;;;;;;11.50;2.90;;;;;;;0.90;100.00;95491.34;5009449;28;20045;-75
2022/01/31 09:38:58;;;;;;;6.90;3.93;;;;;;;0.98;100.00;95483.81;5034087;28;20468;-75
2022/01/31 09:41:26;;;;;;;6.27;2.47;;;;;;;1.02;100.00;95490.41;5031756;28;20471;-75
2022/01/31 09:47:06;;;;;;;5.00;2.60;;;;;;;1.14;100.00;95488.59;5035066;28;20432;-73
2022/01/31 09:49:32;;;;;;;5.77;2.33;;;;;;;1.09;100.00;95491.56;5057443;28;20481;-74
2022/01/31 09:51:58;;;;;;;6.13;2.30;;;;;;;1.03;100.00;95486.88;5034967;28;20521;-75
2022/01/31 09:54:25;;;;;;;6.40;3.07;;;;;;;1.04;100.00;95487.69;5028287;28;20029;-75
2022/01/31 09:56:53;;;;;;;5.87;2.50;;;;;;;1.05;100.00;95490.16;5066317;28;20473;-75
2022/01/31 09:59:19;;;;;;;7.93;2.30;;;;;;;1.04;100.00;95498.88;5026270;28;20440;-75
2022/01/31 10:01:47;;;;;;;5.03;2.47;;;;;;;1.02;100.00;95493.00;5035502;28;20475;-75
2022/01/31 10:04:19;;;;;;;6.23;2.50;;;;;;;1.02;100.00;95510.28;5028593;28;20463;-76
2022/01/31 10:06:51;;;;;;;5.77;2.30;;;;;;;1.02;100.00;95510.28;5023306;28;20472;-75
2022/01/31 10:09:19;;;;;;;8.83;2.40;;;;;;;0.99;100.00;95516.53;5024991;28;20440;-76
2022/01/31 10:17:44;;;;;;;4.40;1.77;;;;;;;1.12;100.00;95519.00;5028849;28;20460;-75
2022/01/31 10:20:26;;;;;;;4.80;1.90;;;;;;;1.11;100.00;95522.53;5036146;28;20485;-75
2022/01/31 10:22:52;;;;;;;2.63;1.50;;;;;;;1.18;100.00;95506.41;5025191;28;20475;-76
2022/01/31 10:25:21;;;;;;;6.70;1.93;;;;;;;1.24;100.00;95514.63;5029600;28;20977;-76
2022/01/31 10:27:52;;;;;;;5.60;1.57;;;;;;;1.24;100.00;95510.28;5032155;28;20550;-75
2022/01/31 10:30:20;;;;;;;6.40;2.07;;;;;;;1.26;100.00;95512.75;5026132;28;20447;-75
2022/01/31 10:32:48;;;;;;;4.83;1.40;;;;;;;1.24;100.00;95506.84;5030358;28;20597;-75
2022/01/31 10:35:21;;;;;;;7.30;1.67;;;;;;;1.31;100.00;95513.22;5020154;28;20483;-75
2022/01/31 10:37:49;;;;;;;5.00;2.03;;;;;;;1.36;100.00;95505.91;5025100;28;21071;-76
2022/01/31 10:56:50;;;;;;;5.93;1.57;;;;;;;1.70;100.00;95472.13;5030818;28;20045;-77
2022/01/31 10:59:19;;;;;;;5.93;2.20;;;;;;;1.75;100.00;95467.41;5024330;28;21019;-74
2022/01/31 11:01:48;;;;;;;4.83;1.73;;;;;;;1.83;100.00;95455.44;5007582;28;20480;-75
2022/01/31 11:04:15;;;;;;;3.90;1.63;;;;;;;1.76;100.00;95469.03;5006741;28;20490;-76
2022/01/31 11:06:43;;;;;;;7.13;1.87;;;;;;;1.76;100.00;95458.66;5009173;28;20037;-75
2022/01/31 11:09:13;;;;;;;4.30;1.90;;;;;;;1.75;100.00;95446.66;5027673;28;20549;-76
2022/01/31 11:11:41;;;;;;;4.43;2.10;;;;;;;1.75;100.00;95465.63;5029477;28;20029;-75
2022/01/31 11:14:08;;;;;;;4.33;1.47;;;;;;;1.78;100.00;95451.59;5032693;28;20426;-75
2022/01/31 11:16:37;;;;;;;7.40;1.97;;;;;;;1.74;100.00;95447.59;5032168;28;20548;-75
2022/01/31 11:19:09;;;;;;;3.93;1.83;;;;;;;1.71;100.00;95448.69;5059050;28;20037;-75
2022/01/31 11:21:43;;;;;;;9.33;2.60;;;;;;;1.59;100.00;95458.25;5033255;28;20037;-75
2022/01/31 11:24:22;;;;;;;8.43;2.17;;;;;;;1.60;100.00;95454.69;5029014;28;20668;-74
2022/01/31 11:27:11;;;;;;;7.33;1.90;;;;;;;1.55;100.00;95443.09;5004673;28;20469;-75
2022/01/31 11:29:41;;;;;;;6.47;1.97;;;;;;;1.56;100.00;95436.94;5036885;28;20456;-74
2022/01/31 11:32:08;;;;;;;5.90;1.67;;;;;;;1.51;100.00;95444.25;5025350;28;20470;-74
2022/01/31 11:34:39;;;;;;;9.10;1.93;;;;;;;1.54;100.00;95447.44;5022855;28;21004;-74
2022/01/31 11:37:08;;;;;;;6.00;1.90;;;;;;;1.46;100.00;95447.22;5051249;28;20502;-74
2022/01/31 11:39:36;;;;;;;7.13;2.40;;;;;;;1.42;100.00;95438.88;5006014;28;20473;-76
2022/01/31 11:42:04;;;;;;;8.60;2.37;;;;;;;1.44;100.00;95443.09;5029457;28;20562;-75
2022/01/31 11:44:40;;;;;;;3.97;1.73;;;;;;;1.29;100.00;95455.53;5029592;28;20475;-76
2022/01/31 11:47:07;;;;;;;5.17;1.70;;;;;;;1.29;100.00;95439.97;5055089;28;20472;-76
2022/01/31 11:49:45;;;;;;;8.80;2.50;;;;;;;1.32;100.00;95431.97;5031075;28;20456;-77
2022/01/31 11:52:11;;;;;;;8.73;2.80;;;;;;;1.38;100.00;95423.72;5035627;28;20470;-76
2022/01/31 11:54:55;;;;;;;7.47;2.73;;;;;;;1.39;100.00;95426.16;5008473;28;20989;-77
2022/01/31 11:57:22;;;;;;;;;;;;;;;1.41;100.00;95426.06;5016755;28;20121;-77